If you wish to contribute or participate in the discussions about articles you are invited to join SKYbrary as a registered user

 Actions

Zurich

From SKYbrary Wiki

LSZH /
Revision as of 13:31, 1 April 2010 by Editor1 (talk | contribs) (Created page with '{{Airport |Airport_Name=Zurich |ICAO_Region=EUR |ICAO_Territory=LS |Location=Zurich, Switzerland |Coordinates=47° 27′ 36″ N, 8° 32′ 54″ E }} __NOTOC__ =Zurich Airport= …')
(diff) ← Older revision | Latest revision (diff) | Newer revision → (diff)
Airport
ICAO: LSZH
Summary
Name Zurich
Region Europe
Territory Switzerland CH.gif
Location Zurich, Switzerland
Serving
Coordinates 47° 27' 36.00" N, 8° 32' 54.00" E
Runways
Designator Length Width Surface ROPS
10/28 2500 m8,202.1 ft <br /> 60 m196.85 ft <br /> CON yes/yes
14/32 3300 m10,826.772 ft <br /> 60 m196.85 ft <br /> CON yes/yes
16/34 3700 m12,139.108 ft <br /> 60 m196.85 ft <br /> CON yes/yes


METAR
Observation LSZH 291450Z 32005KT 280V020 9999 FEW040 25/16 Q1015 NOSIG
Station Zurich-Kloten
Date/Time 29 July 2021 14:50:00
Wind direction 320°
Wind speed 05 kts
Lowest cloud amount few clouds
Temperature 25°C
Dew point 16°C
Humidity 57%
QNH 1015 hPa
Weather condition n/a


Zurich Airport

ICAO: LSZH IATA: ZLQ

Description

International airport serving...

Climatology

Maps

Terrain

Loading map...

Airport Layout

Loading map...

Accidents & Serious Incidents at or in vicinity of LSZH